createdAt,value
2022-12-08T00:05:16.234Z,13.75
2022-12-08T00:10:57.436Z,13.07
2022-12-08T00:16:11.299Z,13.77
2022-12-08T00:21:16.926Z,13.40
2022-12-08T00:26:29.866Z,13.85
2022-12-08T00:31:35.589Z,13.85
2022-12-08T00:36:42.971Z,12.88
2022-12-08T00:42:09.606Z,14.05
2022-12-08T00:47:23.456Z,13.38
2022-12-08T00:52:30.282Z,13.35
2022-12-08T00:57:41.251Z,13.13
2022-12-08T01:02:46.345Z,13.02
2022-12-08T01:07:52.272Z,12.65
2022-12-08T01:13:08.503Z,13.77
2022-12-08T01:18:13.720Z,12.35
2022-12-08T01:23:23.558Z,12.95
2022-12-08T01:28:31.588Z,14.63
2022-12-08T01:33:37.001Z,14.10
2022-12-08T01:38:42.416Z,15.18
2022-12-08T01:43:59.698Z,13.23
2022-12-08T01:49:12.903Z,13.25
2022-12-08T01:54:21.049Z,13.32
2022-12-08T01:59:43.077Z,13.40
2022-12-08T02:04:49.910Z,13.45
2022-12-08T02:09:56.930Z,13.57
2022-12-08T02:15:05.802Z,13.57
2022-12-08T02:20:27.251Z,13.27
2022-12-08T02:25:39.603Z,17.95
2022-12-08T02:30:52.778Z,19.90
2022-12-08T02:36:04.556Z,16.05
2022-12-08T02:41:27.609Z,15.30
2022-12-08T02:46:36.878Z,13.73
2022-12-08T02:51:44.901Z,12.98
2022-12-08T02:57:09.720Z,14.30
2022-12-08T03:02:32.599Z,15.25
2022-12-08T03:07:44.647Z,16.25
2022-12-08T03:12:53.234Z,14.95
2022-12-08T03:18:01.127Z,16.98
2022-12-08T03:23:11.211Z,16.90
2022-12-08T03:28:16.531Z,15.23
2022-12-08T03:33:26.051Z,15.50
2022-12-08T03:38:40.595Z,15.63
2022-12-08T03:43:45.942Z,21.10
2022-12-08T03:48:51.311Z,23.05
2022-12-08T03:53:59.574Z,18.90
2022-12-08T03:59:05.140Z,12.88
2022-12-08T04:04:10.421Z,18.70
2022-12-08T04:09:18.277Z,21.05
2022-12-08T04:14:23.724Z,14.75
2022-12-08T04:19:29.091Z,16.65
2022-12-08T04:24:37.993Z,19.73
2022-12-08T04:29:43.365Z,18.40
2022-12-08T04:34:51.221Z,18.80
2022-12-08T04:39:59.083Z,20.35
2022-12-08T04:45:04.478Z,17.08
2022-12-08T04:50:11.204Z,16.38
2022-12-08T04:55:19.457Z,18.35
2022-12-08T05:00:24.714Z,15.35
2022-12-08T05:05:30.026Z,13.88
2022-12-08T05:10:39.900Z,14.15
2022-12-08T05:15:45.283Z,14.70
2022-12-08T05:20:50.540Z,14.70
2022-12-08T05:25:58.311Z,14.88
2022-12-08T05:31:03.720Z,15.60
2022-12-08T05:36:10.454Z,13.23
2022-12-08T05:41:20.480Z,12.68
2022-12-08T05:46:25.900Z,12.60
2022-12-08T05:51:31.582Z,13.38
2022-12-08T05:56:40.548Z,11.95
2022-12-08T06:01:47.361Z,11.93
2022-12-08T06:06:52.725Z,10.93
2022-12-08T06:12:07.403Z,11.38
2022-12-08T06:17:12.695Z,11.13
2022-12-08T06:22:18.016Z,11.73
2022-12-08T06:27:25.932Z,9.68
2022-12-08T06:32:32.128Z,11.18
2022-12-08T06:37:37.626Z,10.93
2022-12-08T06:42:47.547Z,10.82
2022-12-08T06:47:52.852Z,10.15
2022-12-08T06:53:04.784Z,9.38
2022-12-08T06:58:13.712Z,8.52
2022-12-08T07:03:19.315Z,6.70
2022-12-08T07:08:24.751Z,9.50
2022-12-08T07:13:32.877Z,9.35
2022-12-08T07:18:38.459Z,9.88
2022-12-08T07:23:44.656Z,10.05
2022-12-08T07:28:52.597Z,9.32
2022-12-08T07:33:58.547Z,9.77
2022-12-08T07:39:03.828Z,9.65
2022-12-08T07:44:12.272Z,8.55
2022-12-08T07:49:17.852Z,8.55
2022-12-08T07:54:23.101Z,13.10
2022-12-08T07:59:31.181Z,10.23
2022-12-08T08:04:36.412Z,9.88
2022-12-08T08:09:41.973Z,10.30
2022-12-08T08:14:49.839Z,10.38
2022-12-08T08:19:55.129Z,13.52
2022-12-08T08:25:00.517Z,13.52
2022-12-08T08:30:14.005Z,15.02
2022-12-08T08:35:22.004Z,11.73
2022-12-08T08:40:27.266Z,12.00
2022-12-08T08:45:35.405Z,15.27
2022-12-08T08:50:40.687Z,9.57
2022-12-08T08:55:45.950Z,10.18
2022-12-08T09:12:17.135Z,11.35
2022-12-08T09:28:58.282Z,10.25
2022-12-08T09:40:21.330Z,12.80
2022-12-08T09:46:09.605Z,13.23
2022-12-08T09:51:57.831Z,11.48
2022-12-08T10:16:55.982Z,9.07
2022-12-08T12:43:54.993Z,12.50
2022-12-08T12:49:44.480Z,13.63
2022-12-08T12:55:57.464Z,10.90
2022-12-08T13:01:30.352Z,10.90
2022-12-08T13:06:50.007Z,9.25
2022-12-08T13:12:00.268Z,9.98
2022-12-08T13:17:49.517Z,10.98
2022-12-08T13:24:01.115Z,9.73
2022-12-08T13:35:50.145Z,9.00
2022-12-08T14:10:28.390Z,10.25
2022-12-08T14:16:37.302Z,9.50
2022-12-08T14:28:53.488Z,10.18
2022-12-08T14:34:01.044Z,7.32
2022-12-08T14:39:10.281Z,6.88
2022-12-08T14:44:27.560Z,7.35
2022-12-08T14:49:37.649Z,6.85
2022-12-08T14:54:45.149Z,7.20
2022-12-08T14:59:54.716Z,7.85
2022-12-08T15:05:10.176Z,7.57
2022-12-08T15:10:29.040Z,8.07
2022-12-08T15:16:04.341Z,9.75
2022-12-08T15:21:15.866Z,7.22
2022-12-08T15:26:25.078Z,9.90
2022-12-08T15:31:35.952Z,10.90
2022-12-08T15:36:43.948Z,11.13
2022-12-08T15:48:15.651Z,16.33
2022-12-08T15:53:26.743Z,13.73
2022-12-08T16:09:37.408Z,13.40
2022-12-08T16:26:16.167Z,26.33
2022-12-08T16:31:29.496Z,22.05
2022-12-08T16:36:41.075Z,22.50
2022-12-08T16:42:02.164Z,34.63
2022-12-08T16:47:12.712Z,32.30
2022-12-08T16:52:18.644Z,26.60
2022-12-08T16:57:27.659Z,21.65
2022-12-08T17:02:34.125Z,29.20
2022-12-08T17:07:41.224Z,38.78
2022-12-08T17:12:53.200Z,33.75
2022-12-08T17:19:03.224Z,43.70
2022-12-08T17:24:38.482Z,27.02
2022-12-08T17:29:50.061Z,37.63
2022-12-08T17:34:56.300Z,19.15
2022-12-08T17:40:04.822Z,17.48
2022-12-08T17:45:22.525Z,25.30
2022-12-08T17:50:35.272Z,30.10
2022-12-08T17:55:46.380Z,34.47
2022-12-08T18:00:56.269Z,23.00
2022-12-08T18:06:15.726Z,14.55
2022-12-08T18:11:23.540Z,15.23
2022-12-08T18:16:32.442Z,12.32
2022-12-08T18:21:38.958Z,11.25
2022-12-08T18:26:46.919Z,13.57
2022-12-08T18:31:56.176Z,11.18
2022-12-08T18:37:08.712Z,12.18
2022-12-08T18:42:28.842Z,13.32
2022-12-08T18:47:58.740Z,20.55
2022-12-08T18:53:17.536Z,28.63
2022-12-08T18:58:29.733Z,31.60
2022-12-08T19:04:27.786Z,37.30
2022-12-08T19:09:15.636Z,28.88
2022-12-08T19:14:42.523Z,36.17
2022-12-08T19:19:55.535Z,32.35
2022-12-08T19:25:02.769Z,26.10
2022-12-08T19:30:13.813Z,22.80
2022-12-08T19:35:22.494Z,21.95
2022-12-08T19:40:40.808Z,24.83
2022-12-08T19:45:47.799Z,24.77
2022-12-08T19:50:57.266Z,22.30
2022-12-08T19:56:03.425Z,25.48
2022-12-08T20:01:12.233Z,24.23
2022-12-08T20:06:31.109Z,26.77
2022-12-08T20:11:37.040Z,27.23
2022-12-08T20:16:43.780Z,24.35
2022-12-08T20:21:53.894Z,25.20
2022-12-08T20:27:00.883Z,24.13
2022-12-08T20:32:11.012Z,24.17
2022-12-08T20:37:22.622Z,21.50
2022-12-08T20:42:28.942Z,23.63
2022-12-08T20:47:35.086Z,24.55
2022-12-08T20:52:43.965Z,21.67
2022-12-08T20:57:52.033Z,24.23
2022-12-08T21:02:58.586Z,24.83
2022-12-08T21:08:07.960Z,21.70
2022-12-08T21:13:14.232Z,22.13
2022-12-08T21:18:20.834Z,22.05
2022-12-08T21:23:29.846Z,21.10
2022-12-08T21:28:36.763Z,23.98
2022-12-08T21:33:43.106Z,24.02
2022-12-08T21:39:00.457Z,22.55
2022-12-08T21:44:06.998Z,22.20
2022-12-08T21:49:13.244Z,27.52
2022-12-08T21:54:21.806Z,29.70
2022-12-08T21:59:27.834Z,28.38
2022-12-08T22:04:34.242Z,24.83
2022-12-08T22:09:43.352Z,29.48
2022-12-08T22:14:51.182Z,23.88
2022-12-08T22:19:57.213Z,23.20
2022-12-08T22:25:06.115Z,23.13
2022-12-08T22:30:16.026Z,22.58
2022-12-08T22:35:22.174Z,21.90
2022-12-08T22:40:30.568Z,24.60
2022-12-08T22:50:42.860Z,29.90
2022-12-08T22:55:52.303Z,32.38
2022-12-08T23:01:02.592Z,29.80
2022-12-08T23:06:16.365Z,29.30
2022-12-08T23:11:26.671Z,23.98
2022-12-08T23:16:35.483Z,25.52
2022-12-08T23:21:41.712Z,22.02
2022-12-08T23:27:03.810Z,21.25
2022-12-08T23:32:14.626Z,21.75
2022-12-08T23:37:22.838Z,22.58
2022-12-08T23:42:35.139Z,22.70
2022-12-08T23:47:40.225Z,23.00
2022-12-08T23:52:49.085Z,21.98
2022-12-08T23:57:56.858Z,29.20
